sensor_id;sensor_type;location;lat;lon;timestamp;pressure;altitude;pressure_sealevel;temperature;humidity
76137;BME280;65394;53.172;18.164;2023-02-22T00:00:19;101360.50;;;2.61;65.62
76137;BME280;65394;53.172;18.164;2023-02-22T00:03:19;101363.44;;;2.53;65.99
76137;BME280;65394;53.172;18.164;2023-02-22T00:05:52;101364.31;;;2.52;65.70
76137;BME280;65394;53.172;18.164;2023-02-22T00:08:24;101358.79;;;2.42;66.05
76137;BME280;65394;53.172;18.164;2023-02-22T00:10:50;101361.66;;;2.35;66.16
76137;BME280;65394;53.172;18.164;2023-02-22T00:13:18;101366.55;;;2.28;66.39
76137;BME280;65394;53.172;18.164;2023-02-22T00:15:44;101369.88;;;2.27;66.38
76137;BME280;65394;53.172;18.164;2023-02-22T00:18:16;101370.73;;;2.26;66.75
76137;BME280;65394;53.172;18.164;2023-02-22T00:20:43;101375.60;;;2.25;66.93
76137;BME280;65394;53.172;18.164;2023-02-22T00:23:19;101376.52;;;2.20;66.76
76137;BME280;65394;53.172;18.164;2023-02-22T00:25:47;101378.99;;;2.14;66.78
76137;BME280;65394;53.172;18.164;2023-02-22T00:28:13;101378.61;;;2.07;66.62
76137;BME280;65394;53.172;18.164;2023-02-22T00:30:40;101380.93;;;2.01;66.70
76137;BME280;65394;53.172;18.164;2023-02-22T00:33:10;101382.17;;;1.96;66.42
76137;BME280;65394;53.172;18.164;2023-02-22T00:35:37;101384.73;;;1.88;66.38
76137;BME280;65394;53.172;18.164;2023-02-22T00:38:04;101388.25;;;1.81;66.48
76137;BME280;65394;53.172;18.164;2023-02-22T00:40:32;101388.35;;;1.91;66.28
76137;BME280;65394;53.172;18.164;2023-02-22T00:43:00;101391.66;;;1.90;66.34
76137;BME280;65394;53.172;18.164;2023-02-22T00:45:29;101392.45;;;1.87;66.51
76137;BME280;65394;53.172;18.164;2023-02-22T00:47:55;101393.58;;;1.84;66.31
76137;BME280;65394;53.172;18.164;2023-02-22T00:50:24;101394.54;;;1.82;66.54
76137;BME280;65394;53.172;18.164;2023-02-22T00:52:52;101397.51;;;1.81;66.68
76137;BME280;65394;53.172;18.164;2023-02-22T00:55:22;101397.95;;;1.61;66.96
76137;BME280;65394;53.172;18.164;2023-02-22T00:57:48;101403.17;;;1.50;67.06
76137;BME280;65394;53.172;18.164;2023-02-22T01:00:20;101404.33;;;1.42;66.90
76137;BME280;65394;53.172;18.164;2023-02-22T01:02:47;101408.56;;;1.35;66.91
76137;BME280;65394;53.172;18.164;2023-02-22T01:05:18;101405.83;;;1.26;66.64
76137;BME280;65394;53.172;18.164;2023-02-22T01:07:46;101406.25;;;1.20;66.86
76137;BME280;65394;53.172;18.164;2023-02-22T01:10:19;101410.89;;;1.15;66.99
76137;BME280;65394;53.172;18.164;2023-02-22T01:12:46;101411.84;;;1.12;67.38
76137;BME280;65394;53.172;18.164;2023-02-22T01:15:14;101412.19;;;1.12;67.29
76137;BME280;65394;53.172;18.164;2023-02-22T01:17:40;101413.51;;;1.13;67.02
76137;BME280;65394;53.172;18.164;2023-02-22T01:20:10;101420.33;;;1.18;66.59
76137;BME280;65394;53.172;18.164;2023-02-22T01:22:38;101422.06;;;1.31;66.62
76137;BME280;65394;53.172;18.164;2023-02-22T01:25:06;101424.00;;;1.38;66.96
76137;BME280;65394;53.172;18.164;2023-02-22T01:27:33;101426.63;;;1.45;67.10
76137;BME280;65394;53.172;18.164;2023-02-22T01:30:00;101429.56;;;1.53;66.96
76137;BME280;65394;53.172;18.164;2023-02-22T01:32:26;101433.02;;;1.57;67.38
76137;BME280;65394;53.172;18.164;2023-02-22T01:34:52;101436.14;;;1.56;67.23
76137;BME280;65394;53.172;18.164;2023-02-22T01:37:19;101432.69;;;1.47;67.29
76137;BME280;65394;53.172;18.164;2023-02-22T01:39:44;101433.61;;;1.37;67.14
76137;BME280;65394;53.172;18.164;2023-02-22T01:42:12;101434.41;;;1.25;67.04
76137;BME280;65394;53.172;18.164;2023-02-22T01:44:38;101434.35;;;1.13;67.05
76137;BME280;65394;53.172;18.164;2023-02-22T01:47:06;101436.52;;;1.01;66.93
76137;BME280;65394;53.172;18.164;2023-02-22T01:50:00;101435.08;;;0.89;66.84
76137;BME280;65394;53.172;18.164;2023-02-22T01:52:26;101433.86;;;0.76;66.85
76137;BME280;65394;53.172;18.164;2023-02-22T01:54:56;101436.63;;;0.65;66.90
76137;BME280;65394;53.172;18.164;2023-02-22T01:57:29;101444.22;;;0.53;66.99
76137;BME280;65394;53.172;18.164;2023-02-22T02:00:04;101446.42;;;0.44;66.95
76137;BME280;65394;53.172;18.164;2023-02-22T02:02:44;101444.73;;;0.43;67.10
76137;BME280;65394;53.172;18.164;2023-02-22T02:05:13;101449.14;;;0.40;67.28
76137;BME280;65394;53.172;18.164;2023-02-22T02:07:39;101447.74;;;0.35;67.58
76137;BME280;65394;53.172;18.164;2023-02-22T02:10:12;101450.98;;;0.30;67.95
76137;BME280;65394;53.172;18.164;2023-02-22T02:12:43;101450.23;;;0.27;67.83
76137;BME280;65394;53.172;18.164;2023-02-22T02:15:26;101451.59;;;0.23;68.25
76137;BME280;65394;53.172;18.164;2023-02-22T02:17:58;101455.67;;;0.18;68.00
76137;BME280;65394;53.172;18.164;2023-02-22T02:29:35;101464.84;;;-0.07;67.92
76137;BME280;65394;53.172;18.164;2023-02-22T02:32:18;101470.28;;;-0.17;68.06
76137;BME280;65394;53.172;18.164;2023-02-22T02:40:58;101482.16;;;-0.43;67.90
76137;BME280;65394;53.172;18.164;2023-02-22T02:43:38;101479.85;;;-0.51;68.27
76137;BME280;65394;53.172;18.164;2023-02-22T02:47:02;101478.83;;;-0.56;68.16
76137;BME280;65394;53.172;18.164;2023-02-22T02:49:12;101481.85;;;-0.61;68.07
76137;BME280;65394;53.172;18.164;2023-02-22T02:51:44;101483.77;;;-0.57;67.90
76137;BME280;65394;53.172;18.164;2023-02-22T02:54:13;101485.77;;;-0.60;68.24
76137;BME280;65394;53.172;18.164;2023-02-22T02:56:40;101489.23;;;-0.62;68.27
76137;BME280;65394;53.172;18.164;2023-02-22T02:59:23;101490.42;;;-0.63;68.66
76137;BME280;65394;53.172;18.164;2023-02-22T03:04:54;101491.55;;;-0.49;68.96
76137;BME280;65394;53.172;18.164;2023-02-22T03:07:46;101494.85;;;-0.40;68.93
76137;BME280;65394;53.172;18.164;2023-02-22T03:13:37;101499.02;;;-0.31;68.87
76137;BME280;65394;53.172;18.164;2023-02-22T03:16:20;101504.15;;;-0.26;68.55
76137;BME280;65394;53.172;18.164;2023-02-22T03:19:09;101504.55;;;-0.23;68.28
76137;BME280;65394;53.172;18.164;2023-02-22T03:21:56;101506.23;;;-0.22;68.10
76137;BME280;65394;53.172;18.164;2023-02-22T03:24:44;101507.27;;;-0.22;68.31
76137;BME280;65394;53.172;18.164;2023-02-22T03:27:30;101509.48;;;-0.27;68.03
76137;BME280;65394;53.172;18.164;2023-02-22T03:30:01;101514.09;;;-0.33;67.92
76137;BME280;65394;53.172;18.164;2023-02-22T03:32:35;101519.30;;;-0.42;67.94
76137;BME280;65394;53.172;18.164;2023-02-22T03:35:07;101518.73;;;-0.52;68.23
76137;BME280;65394;53.172;18.164;2023-02-22T03:37:38;101518.84;;;-0.55;68.47
76137;BME280;65394;53.172;18.164;2023-02-22T03:40:10;101520.55;;;-0.61;68.46
76137;BME280;65394;53.172;18.164;2023-02-22T03:43:01;101522.40;;;-0.66;68.71
76137;BME280;65394;53.172;18.164;2023-02-22T03:45:37;101525.16;;;-0.74;68.55
76137;BME280;65394;53.172;18.164;2023-02-22T03:48:10;101525.09;;;-0.77;68.69
76137;BME280;65394;53.172;18.164;2023-02-22T03:50:41;101532.63;;;-0.79;68.56
76137;BME280;65394;53.172;18.164;2023-02-22T03:53:08;101535.23;;;-0.80;68.59
76137;BME280;65394;53.172;18.164;2023-02-22T03:55:36;101539.41;;;-0.84;69.00
76137;BME280;65394;53.172;18.164;2023-02-22T03:58:09;101538.66;;;-0.88;68.93
76137;BME280;65394;53.172;18.164;2023-02-22T04:00:37;101539.45;;;-0.91;68.87
76137;BME280;65394;53.172;18.164;2023-02-22T04:03:04;101539.95;;;-0.97;68.91
76137;BME280;65394;53.172;18.164;2023-02-22T04:09:30;101539.98;;;-1.17;68.77
76137;BME280;65394;53.172;18.164;2023-02-22T04:11:57;101541.21;;;-1.25;68.32
76137;BME280;65394;53.172;18.164;2023-02-22T04:14:24;101541.61;;;-1.34;68.72
76137;BME280;65394;53.172;18.164;2023-02-22T04:16:50;101548.94;;;-1.41;68.46
76137;BME280;65394;53.172;18.164;2023-02-22T04:19:16;101553.16;;;-1.46;68.29
76137;BME280;65394;53.172;18.164;2023-02-22T04:21:43;101554.47;;;-1.51;68.65
76137;BME280;65394;53.172;18.164;2023-02-22T04:24:16;101552.32;;;-1.47;68.51
76137;BME280;65394;53.172;18.164;2023-02-22T04:26:42;101554.15;;;-1.45;68.38
76137;BME280;65394;53.172;18.164;2023-02-22T04:29:08;101556.04;;;-1.45;68.84
76137;BME280;65394;53.172;18.164;2023-02-22T04:31:37;101552.10;;;-1.44;68.96
76137;BME280;65394;53.172;18.164;2023-02-22T04:34:03;101555.23;;;-1.41;68.75
76137;BME280;65394;53.172;18.164;2023-02-22T04:36:32;101555.96;;;-1.23;68.74
76137;BME280;65394;53.172;18.164;2023-02-22T04:38:59;101558.39;;;-1.18;68.73
76137;BME280;65394;53.172;18.164;2023-02-22T04:41:26;101564.02;;;-1.19;68.66
76137;BME280;65394;53.172;18.164;2023-02-22T04:43:52;101563.55;;;-1.20;68.48
76137;BME280;65394;53.172;18.164;2023-02-22T04:46:22;101565.21;;;-1.32;68.71
76137;BME280;65394;53.172;18.164;2023-02-22T04:48:49;101563.56;;;-1.41;68.99
76137;BME280;65394;53.172;18.164;2023-02-22T04:51:16;101569.60;;;-1.43;68.98
76137;BME280;65394;53.172;18.164;2023-02-22T04:53:53;101574.75;;;-1.45;68.86
76137;BME280;65394;53.172;18.164;2023-02-22T04:56:19;101572.58;;;-1.47;68.89
76137;BME280;65394;53.172;18.164;2023-02-22T04:58:45;101576.36;;;-1.49;69.21
76137;BME280;65394;53.172;18.164;2023-02-22T05:01:14;101577.30;;;-1.53;69.02
76137;BME280;65394;53.172;18.164;2023-02-22T05:03:41;101581.95;;;-1.47;69.24
76137;BME280;65394;53.172;18.164;2023-02-22T05:06:07;101578.15;;;-1.45;69.26
76137;BME280;65394;53.172;18.164;2023-02-22T05:08:34;101576.69;;;-1.35;68.94
76137;BME280;65394;53.172;18.164;2023-02-22T05:10:59;101582.41;;;-1.25;68.64
76137;BME280;65394;53.172;18.164;2023-02-22T05:13:25;101585.61;;;-1.17;69.06
76137;BME280;65394;53.172;18.164;2023-02-22T05:15:51;101577.23;;;-1.03;69.08
76137;BME280;65394;53.172;18.164;2023-02-22T05:18:17;101574.49;;;-0.84;68.98
76137;BME280;65394;53.172;18.164;2023-02-22T05:20:43;101577.31;;;-0.68;68.88
76137;BME280;65394;53.172;18.164;2023-02-22T05:23:09;101582.48;;;-0.59;68.32
76137;BME280;65394;53.172;18.164;2023-02-22T05:25:35;101585.73;;;-0.52;68.55
76137;BME280;65394;53.172;18.164;2023-02-22T05:28:06;101588.58;;;-0.45;68.45
76137;BME280;65394;53.172;18.164;2023-02-22T05:30:34;101591.29;;;-0.39;68.31
76137;BME280;65394;53.172;18.164;2023-02-22T05:33:01;101588.73;;;-0.33;68.46
76137;BME280;65394;53.172;18.164;2023-02-22T05:35:27;101587.95;;;-0.29;68.40
76137;BME280;65394;53.172;18.164;2023-02-22T05:37:54;101585.38;;;-0.28;68.19
76137;BME280;65394;53.172;18.164;2023-02-22T05:40:23;101593.28;;;-0.25;68.50
76137;BME280;65394;53.172;18.164;2023-02-22T05:42:50;101596.67;;;-0.25;67.99
76137;BME280;65394;53.172;18.164;2023-02-22T05:45:18;101602.27;;;-0.24;67.88
76137;BME280;65394;53.172;18.164;2023-02-22T05:47:45;101603.08;;;-0.22;67.55
76137;BME280;65394;53.172;18.164;2023-02-22T05:50:12;101609.75;;;-0.12;67.60
76137;BME280;65394;53.172;18.164;2023-02-22T05:52:38;101613.94;;;-0.03;67.33
76137;BME280;65394;53.172;18.164;2023-02-22T05:55:06;101613.59;;;0.03;67.52
76137;BME280;65394;53.172;18.164;2023-02-22T05:57:32;101619.20;;;0.09;67.55
76137;BME280;65394;53.172;18.164;2023-02-22T05:59:58;101625.30;;;0.16;67.48
76137;BME280;65394;53.172;18.164;2023-02-22T06:02:24;101628.17;;;0.22;67.50
76137;BME280;65394;53.172;18.164;2023-02-22T06:04:50;101635.39;;;0.26;67.53
76137;BME280;65394;53.172;18.164;2023-02-22T06:07:16;101634.06;;;0.30;67.45
76137;BME280;65394;53.172;18.164;2023-02-22T06:09:42;101627.29;;;0.34;67.25
76137;BME280;65394;53.172;18.164;2023-02-22T06:12:08;101631.27;;;0.38;67.24
76137;BME280;65394;53.172;18.164;2023-02-22T06:14:35;101628.80;;;0.41;66.83
76137;BME280;65394;53.172;18.164;2023-02-22T06:17:01;101634.73;;;0.42;66.67
76137;BME280;65394;53.172;18.164;2023-02-22T06:19:27;101636.98;;;0.46;66.91
76137;BME280;65394;53.172;18.164;2023-02-22T06:21:55;101646.08;;;0.61;66.87
76137;BME280;65394;53.172;18.164;2023-02-22T06:24:21;101647.31;;;0.70;66.85
76137;BME280;65394;53.172;18.164;2023-02-22T06:26:55;101650.97;;;0.79;66.92
76137;BME280;65394;53.172;18.164;2023-02-22T06:29:26;101650.94;;;0.90;66.99
76137;BME280;65394;53.172;18.164;2023-02-22T06:31:53;101650.67;;;0.98;67.19
76137;BME280;65394;53.172;18.164;2023-02-22T06:34:20;101652.77;;;1.06;67.13
76137;BME280;65394;53.172;18.164;2023-02-22T06:36:49;101651.62;;;1.15;67.01
76137;BME280;65394;53.172;18.164;2023-02-22T06:39:15;101652.70;;;1.23;66.85
76137;BME280;65394;53.172;18.164;2023-02-22T06:41:42;101653.41;;;1.32;66.91
76137;BME280;65394;53.172;18.164;2023-02-22T06:44:09;101654.42;;;1.42;67.01
76137;BME280;65394;53.172;18.164;2023-02-22T06:46:36;101659.70;;;1.53;66.58
76137;BME280;65394;53.172;18.164;2023-02-22T06:49:02;101663.64;;;1.62;66.33
76137;BME280;65394;53.172;18.164;2023-02-22T06:51:28;101665.50;;;1.72;66.03
76137;BME280;65394;53.172;18.164;2023-02-22T06:53:55;101666.73;;;1.90;65.83
76137;BME280;65394;53.172;18.164;2023-02-22T06:56:21;101666.54;;;2.04;65.69
76137;BME280;65394;53.172;18.164;2023-02-22T06:58:47;101666.12;;;2.19;65.78
76137;BME280;65394;53.172;18.164;2023-02-22T07:01:16;101666.56;;;2.39;65.99
76137;BME280;65394;53.172;18.164;2023-02-22T07:03:41;101657.77;;;2.58;66.22
76137;BME280;65394;53.172;18.164;2023-02-22T07:06:08;101659.89;;;2.74;66.32
76137;BME280;65394;53.172;18.164;2023-02-22T07:08:36;101663.13;;;2.94;65.81
76137;BME280;65394;53.172;18.164;2023-02-22T07:11:02;101663.16;;;3.19;65.55
76137;BME280;65394;53.172;18.164;2023-02-22T07:13:28;101663.58;;;3.52;65.42
76137;BME280;65394;53.172;18.164;2023-02-22T07:15:54;101670.23;;;4.28;64.28
76137;BME280;65394;53.172;18.164;2023-02-22T07:18:20;101672.95;;;5.34;63.47
76137;BME280;65394;53.172;18.164;2023-02-22T07:20:46;101671.45;;;6.03;62.75
76137;BME280;65394;53.172;18.164;2023-02-22T07:23:13;101671.31;;;6.49;61.86
76137;BME280;65394;53.172;18.164;2023-02-22T07:25:39;101670.40;;;7.75;60.77
76137;BME280;65394;53.172;18.164;2023-02-22T07:28:05;101666.64;;;8.90;59.11
76137;BME280;65394;53.172;18.164;2023-02-22T07:30:32;101662.98;;;9.63;58.22
76137;BME280;65394;53.172;18.164;2023-02-22T07:33:09;101660.71;;;10.25;57.48
76137;BME280;65394;53.172;18.164;2023-02-22T07:35:46;101659.86;;;11.28;56.15
76137;BME280;65394;53.172;18.164;2023-02-22T07:38:14;101661.43;;;12.64;54.03
76137;BME280;65394;53.172;18.164;2023-02-22T07:40:41;101661.43;;;12.77;52.85
76137;BME280;65394;53.172;18.164;2023-02-22T07:45:42;101658.71;;;14.26;49.32
76137;BME280;65394;53.172;18.164;2023-02-22T07:48:08;101658.65;;;15.40;47.95
76137;BME280;65394;53.172;18.164;2023-02-22T07:50:34;101659.54;;;16.51;46.44
76137;BME280;65394;53.172;18.164;2023-02-22T07:53:03;101661.38;;;17.13;44.98
76137;BME280;65394;53.172;18.164;2023-02-22T07:55:30;101667.86;;;17.18;44.19
76137;BME280;65394;53.172;18.164;2023-02-22T07:57:59;101667.83;;;16.93;42.78
76137;BME280;65394;53.172;18.164;2023-02-22T08:00:28;101675.45;;;16.54;42.47
76137;BME280;65394;53.172;18.164;2023-02-22T08:02:55;101675.95;;;16.69;40.98
76137;BME280;65394;53.172;18.164;2023-02-22T08:05:23;101676.89;;;16.65;38.83
76137;BME280;65394;53.172;18.164;2023-02-22T08:07:50;101674.30;;;16.32;40.26
76137;BME280;65394;53.172;18.164;2023-02-22T08:10:17;101679.77;;;15.85;39.81
76137;BME280;65394;53.172;18.164;2023-02-22T08:12:43;101680.23;;;15.60;39.46
76137;BME280;65394;53.172;18.164;2023-02-22T08:15:17;101680.13;;;15.27;38.76
76137;BME280;65394;53.172;18.164;2023-02-22T08:17:44;101683.78;;;14.64;40.34
76137;BME280;65394;53.172;18.164;2023-02-22T08:20:10;101687.66;;;14.17;40.45
76137;BME280;65394;53.172;18.164;2023-02-22T08:22:36;101687.18;;;13.91;38.38
76137;BME280;65394;53.172;18.164;2023-02-22T08:25:02;101687.45;;;13.81;39.31
76137;BME280;65394;53.172;18.164;2023-02-22T08:27:29;101694.27;;;13.97;39.54
76137;BME280;65394;53.172;18.164;2023-02-22T08:29:55;101687.40;;;14.10;40.01
76137;BME280;65394;53.172;18.164;2023-02-22T08:32:22;101693.56;;;13.81;36.89
76137;BME280;65394;53.172;18.164;2023-02-22T08:34:48;101693.80;;;13.48;37.43
76137;BME280;65394;53.172;18.164;2023-02-22T08:37:15;101693.77;;;13.79;36.28
76137;BME280;65394;53.172;18.164;2023-02-22T08:39:42;101684.19;;;15.21;36.49
76137;BME280;65394;53.172;18.164;2023-02-22T08:42:07;101677.23;;;16.54;32.00
76137;BME280;65394;53.172;18.164;2023-02-22T08:44:35;101674.11;;;17.67;31.27
76137;BME280;65394;53.172;18.164;2023-02-22T08:47:01;101667.04;;;18.31;30.84
76137;BME280;65394;53.172;18.164;2023-02-22T08:49:28;101672.11;;;17.72;30.54
76137;BME280;65394;53.172;18.164;2023-02-22T08:51:53;101677.05;;;17.49;31.18
76137;BME280;65394;53.172;18.164;2023-02-22T08:54:19;101677.41;;;18.24;29.45
76137;BME280;65394;53.172;18.164;2023-02-22T08:56:47;101671.89;;;19.67;28.58
76137;BME280;65394;53.172;18.164;2023-02-22T08:59:14;101669.36;;;20.99;27.49
76137;BME280;65394;53.172;18.164;2023-02-22T09:01:41;101665.61;;;22.08;25.97
76137;BME280;65394;53.172;18.164;2023-02-22T09:04:07;101656.02;;;23.19;25.63
76137;BME280;65394;53.172;18.164;2023-02-22T09:06:33;101655.78;;;24.43;24.60
76137;BME280;65394;53.172;18.164;2023-02-22T09:09:00;101659.30;;;25.38;23.65
76137;BME280;65394;53.172;18.164;2023-02-22T09:11:27;101655.47;;;25.86;24.16
76137;BME280;65394;53.172;18.164;2023-02-22T09:13:53;101652.08;;;26.33;22.88
76137;BME280;65394;53.172;18.164;2023-02-22T09:16:19;101655.13;;;24.27;22.45
76137;BME280;65394;53.172;18.164;2023-02-22T09:18:44;101660.38;;;23.02;23.15
76137;BME280;65394;53.172;18.164;2023-02-22T09:21:12;101671.17;;;20.38;23.92
76137;BME280;65394;53.172;18.164;2023-02-22T09:23:38;101675.48;;;18.65;26.42
76137;BME280;65394;53.172;18.164;2023-02-22T09:26:07;101685.52;;;17.41;27.76
76137;BME280;65394;53.172;18.164;2023-02-22T09:28:33;101683.71;;;16.84;28.81
76137;BME280;65394;53.172;18.164;2023-02-22T09:30:59;101683.50;;;18.15;28.77
76137;BME280;65394;53.172;18.164;2023-02-22T09:33:25;101679.27;;;20.14;25.97
76137;BME280;65394;53.172;18.164;2023-02-22T09:35:51;101678.97;;;20.60;25.84
76137;BME280;65394;53.172;18.164;2023-02-22T09:38:19;101682.59;;;19.80;26.28
76137;BME280;65394;53.172;18.164;2023-02-22T09:41:03;101688.42;;;18.86;24.73
76137;BME280;65394;53.172;18.164;2023-02-22T09:44:00;101689.98;;;17.93;24.86
76137;BME280;65394;53.172;18.164;2023-02-22T09:46:36;101698.89;;;16.91;26.67
76137;BME280;65394;53.172;18.164;2023-02-22T09:49:14;101696.52;;;16.66;28.68
76137;BME280;65394;53.172;18.164;2023-02-22T09:52:12;101695.77;;;16.26;28.58
76137;BME280;65394;53.172;18.164;2023-02-22T09:54:46;101695.34;;;16.61;28.63
76137;BME280;65394;53.172;18.164;2023-02-22T09:57:32;101689.20;;;18.81;26.59
76137;BME280;65394;53.172;18.164;2023-02-22T10:03:03;101692.98;;;18.80;24.69
76137;BME280;65394;53.172;18.164;2023-02-22T10:05:35;101699.23;;;16.87;25.68
76137;BME280;65394;53.172;18.164;2023-02-22T10:08:07;101696.66;;;18.59;24.63
76137;BME280;65394;53.172;18.164;2023-02-22T10:10:37;101690.88;;;20.40;23.41
76137;BME280;65394;53.172;18.164;2023-02-22T10:26:48;101685.09;;;25.14;17.55
76137;BME280;65394;53.172;18.164;2023-02-22T10:32:02;101693.66;;;25.31;17.41
76137;BME280;65394;53.172;18.164;2023-02-22T10:34:32;101699.58;;;26.05;17.59
76137;BME280;65394;53.172;18.164;2023-02-22T10:39:56;101689.67;;;27.02;17.33
76137;BME280;65394;53.172;18.164;2023-02-22T10:42:25;101687.11;;;28.14;17.01
76137;BME280;65394;53.172;18.164;2023-02-22T10:44:52;101687.58;;;27.35;16.42
76137;BME280;65394;53.172;18.164;2023-02-22T10:47:18;101696.72;;;25.26;18.33
76137;BME280;65394;53.172;18.164;2023-02-22T10:49:56;101694.80;;;24.69;18.38
76137;BME280;65394;53.172;18.164;2023-02-22T10:52:31;101692.56;;;24.38;18.73
76137;BME280;65394;53.172;18.164;2023-02-22T10:55:02;101691.38;;;23.32;19.52
76137;BME280;65394;53.172;18.164;2023-02-22T10:57:34;101700.57;;;22.36;20.43
76137;BME280;65394;53.172;18.164;2023-02-22T11:00:27;101705.45;;;21.15;20.15
76137;BME280;65394;53.172;18.164;2023-02-22T11:02:59;101695.86;;;21.99;20.12
76137;BME280;65394;53.172;18.164;2023-02-22T11:05:35;101685.75;;;23.94;19.26
76137;BME280;65394;53.172;18.164;2023-02-22T11:10:48;101678.77;;;26.53;16.84
76137;BME280;65394;53.172;18.164;2023-02-22T11:13:37;101671.33;;;27.59;17.10
76137;BME280;65394;53.172;18.164;2023-02-22T11:18:49;101661.44;;;30.86;16.77
76137;BME280;65394;53.172;18.164;2023-02-22T11:21:24;101649.46;;;32.08;15.61
76137;BME280;65394;53.172;18.164;2023-02-22T11:24:00;101649.67;;;33.03;15.68
76137;BME280;65394;53.172;18.164;2023-02-22T11:26:27;101642.73;;;33.37;15.59
76137;BME280;65394;53.172;18.164;2023-02-22T11:28:53;101642.09;;;32.09;15.40
76137;BME280;65394;53.172;18.164;2023-02-22T11:31:25;101646.05;;;31.28;15.97
76137;BME280;65394;53.172;18.164;2023-02-22T11:33:54;101654.57;;;29.44;16.73
76137;BME280;65394;53.172;18.164;2023-02-22T11:36:39;101656.39;;;27.98;17.29
76137;BME280;65394;53.172;18.164;2023-02-22T11:39:26;101655.07;;;27.44;17.54
76137;BME280;65394;53.172;18.164;2023-02-22T11:41:54;101653.86;;;28.82;17.16
76137;BME280;65394;53.172;18.164;2023-02-22T11:44:29;101654.13;;;29.56;16.36
76137;BME280;65394;53.172;18.164;2023-02-22T11:46:57;101646.35;;;31.06;15.60
76137;BME280;65394;53.172;18.164;2023-02-22T11:49:38;101647.54;;;32.34;15.29
76137;BME280;65394;53.172;18.164;2023-02-22T12:05:29;101652.66;;;27.23;17.53
76137;BME280;65394;53.172;18.164;2023-02-22T12:11:09;101649.02;;;26.58;18.16
76137;BME280;65394;53.172;18.164;2023-02-22T12:16:36;101651.84;;;25.10;18.75
76137;BME280;65394;53.172;18.164;2023-02-22T12:19:31;101658.84;;;24.18;19.27
76137;BME280;65394;53.172;18.164;2023-02-22T12:22:02;101663.50;;;24.65;19.20
76137;BME280;65394;53.172;18.164;2023-02-22T12:24:44;101662.33;;;25.83;18.92
76137;BME280;65394;53.172;18.164;2023-02-22T12:27:19;101663.16;;;25.70;18.98
76137;BME280;65394;53.172;18.164;2023-02-22T12:29:50;101664.72;;;24.65;19.24
76137;BME280;65394;53.172;18.164;2023-02-22T12:32:28;101662.36;;;23.67;19.80
76137;BME280;65394;53.172;18.164;2023-02-22T12:35:02;101671.43;;;22.59;20.44
76137;BME280;65394;53.172;18.164;2023-02-22T12:40:25;101680.55;;;21.45;20.99
76137;BME280;65394;53.172;18.164;2023-02-22T12:45:35;101669.75;;;23.36;20.16
76137;BME280;65394;53.172;18.164;2023-02-22T12:48:39;101670.13;;;24.84;19.51
76137;BME280;65394;53.172;18.164;2023-02-22T12:54:01;101667.71;;;26.87;17.96
76137;BME280;65394;53.172;18.164;2023-02-22T12:56:33;101669.11;;;27.50;17.88
76137;BME280;65394;53.172;18.164;2023-02-22T12:59:15;101663.91;;;27.97;17.68
76137;BME280;65394;53.172;18.164;2023-02-22T13:01:49;101663.59;;;28.40;17.72
76137;BME280;65394;53.172;18.164;2023-02-22T13:04:17;101662.52;;;28.62;16.57
76137;BME280;65394;53.172;18.164;2023-02-22T13:13:03;101672.33;;;25.94;18.39
76137;BME280;65394;53.172;18.164;2023-02-22T13:18:30;101672.46;;;24.20;18.87
76137;BME280;65394;53.172;18.164;2023-02-22T13:23:52;101673.97;;;22.79;19.56
76137;BME280;65394;53.172;18.164;2023-02-22T13:26:38;101669.20;;;23.31;19.50
76137;BME280;65394;53.172;18.164;2023-02-22T13:29:15;101668.10;;;23.38;19.70
76137;BME280;65394;53.172;18.164;2023-02-22T13:32:04;101669.73;;;23.61;19.52
76137;BME280;65394;53.172;18.164;2023-02-22T13:40:25;101665.69;;;26.19;18.49
76137;BME280;65394;53.172;18.164;2023-02-22T13:45:47;101660.44;;;27.10;18.06
76137;BME280;65394;53.172;18.164;2023-02-22T13:51:07;101670.55;;;24.07;18.91
76137;BME280;65394;53.172;18.164;2023-02-22T13:53:42;101676.53;;;22.70;19.56
76137;BME280;65394;53.172;18.164;2023-02-22T13:56:12;101676.30;;;22.31;19.49
76137;BME280;65394;53.172;18.164;2023-02-22T13:59:19;101677.52;;;22.75;19.48
76137;BME280;65394;53.172;18.164;2023-02-22T14:01:46;101683.03;;;21.39;20.36
76137;BME280;65394;53.172;18.164;2023-02-22T14:06:56;101682.65;;;19.79;21.19
76137;BME280;65394;53.172;18.164;2023-02-22T14:09:46;101684.77;;;18.65;21.79
76137;BME280;65394;53.172;18.164;2023-02-22T14:15:13;101695.52;;;16.59;23.28
76137;BME280;65394;53.172;18.164;2023-02-22T14:17:44;101695.93;;;15.75;23.87
76137;BME280;65394;53.172;18.164;2023-02-22T14:20:18;101700.63;;;14.98;24.67
76137;BME280;65394;53.172;18.164;2023-02-22T14:22:47;101702.03;;;14.30;25.30
76137;BME280;65394;53.172;18.164;2023-02-22T14:25:36;101703.11;;;14.08;25.70
76137;BME280;65394;53.172;18.164;2023-02-22T14:28:09;101695.41;;;14.94;25.44
76137;BME280;65394;53.172;18.164;2023-02-22T14:31:05;101690.92;;;15.56;25.46
76137;BME280;65394;53.172;18.164;2023-02-22T14:33:53;101689.73;;;15.44;25.56
76137;BME280;65394;53.172;18.164;2023-02-22T14:36:20;101692.05;;;15.13;26.09
76137;BME280;65394;53.172;18.164;2023-02-22T14:38:48;101695.08;;;15.30;25.89
76137;BME280;65394;53.172;18.164;2023-02-22T14:41:24;101696.48;;;15.01;26.01
76137;BME280;65394;53.172;18.164;2023-02-22T14:43:54;101698.01;;;14.46;26.08
76137;BME280;65394;53.172;18.164;2023-02-22T14:46:24;101699.16;;;13.75;26.80
76137;BME280;65394;53.172;18.164;2023-02-22T14:48:59;101700.31;;;13.25;27.41
76137;BME280;65394;53.172;18.164;2023-02-22T14:51:52;101700.26;;;13.07;27.67
76137;BME280;65394;53.172;18.164;2023-02-22T14:54:44;101703.89;;;12.88;27.99